createdAt,value
2018-03-20T00:01:49.173Z,80.80
2018-03-20T00:04:15.501Z,80.80
2018-03-20T00:06:41.835Z,80.60
2018-03-20T00:09:08.501Z,80.90
2018-03-20T00:11:35.493Z,80.50
2018-03-20T00:14:02.405Z,80.40
2018-03-20T00:16:30.304Z,80.80
2018-03-20T00:18:57.004Z,80.80
2018-03-20T00:21:23.258Z,80.40
2018-03-20T00:23:50.717Z,80.60
2018-03-20T00:26:17.722Z,80.00
2018-03-20T00:28:45.026Z,80.10
2018-03-20T00:31:12.606Z,79.90
2018-03-20T00:33:39.534Z,79.90
2018-03-20T00:36:07.101Z,80.30
2018-03-20T00:38:34.669Z,80.90
2018-03-20T00:41:01.656Z,80.80
2018-03-20T00:43:28.245Z,80.70
2018-03-20T00:45:54.596Z,80.80
2018-03-20T00:48:22.021Z,81.00
2018-03-20T00:50:48.677Z,81.00
2018-03-20T00:53:15.557Z,81.30
2018-03-20T00:55:42.551Z,81.50
2018-03-20T00:58:08.799Z,81.50
2018-03-20T01:00:35.373Z,81.40
2018-03-20T01:03:02.375Z,81.50
2018-03-20T01:05:28.723Z,81.30
2018-03-20T01:07:55.022Z,81.30
2018-03-20T01:10:21.266Z,81.40
2018-03-20T01:12:47.879Z,81.60
2018-03-20T01:15:14.879Z,81.80
2018-03-20T01:17:41.125Z,81.10
2018-03-20T01:20:07.799Z,81.10
2018-03-20T01:22:34.391Z,81.00
2018-03-20T01:25:01.103Z,80.90
2018-03-20T01:27:28.656Z,81.30
2018-03-20T01:29:54.999Z,81.30
2018-03-20T01:32:22.768Z,80.80
2018-03-20T01:34:50.306Z,80.50
2018-03-20T01:37:16.549Z,80.40
2018-03-20T01:39:43.287Z,80.40
2018-03-20T01:42:09.552Z,80.50
2018-03-20T01:44:36.539Z,80.90
2018-03-20T01:47:03.349Z,80.90
2018-03-20T01:49:31.213Z,81.30
2018-03-20T01:51:58.266Z,81.20
2018-03-20T01:54:25.896Z,80.60
2018-03-20T01:56:52.151Z,80.50
2018-03-20T01:59:19.143Z,80.70
2018-03-20T02:01:45.664Z,80.70
2018-03-20T02:04:12.649Z,81.50
2018-03-20T02:06:39.025Z,81.50
2018-03-20T02:09:05.897Z,81.80
2018-03-20T02:11:32.909Z,81.70
2018-03-20T02:14:00.416Z,81.60
2018-03-20T02:16:27.989Z,81.40
2018-03-20T02:18:55.434Z,81.20
2018-03-20T02:21:22.434Z,80.80
2018-03-20T02:23:49.341Z,80.80
2018-03-20T02:26:17.222Z,80.60
2018-03-20T02:28:44.205Z,80.20
2018-03-20T02:31:11.004Z,80.20
2018-03-20T02:33:38.439Z,80.20
2018-03-20T02:36:05.192Z,80.20
2018-03-20T02:38:31.853Z,80.40
2018-03-20T02:40:58.105Z,80.10
2018-03-20T02:43:25.039Z,80.10
2018-03-20T02:45:51.296Z,80.10
2018-03-20T02:48:17.546Z,80.10
2018-03-20T02:50:44.472Z,80.40
2018-03-20T02:53:12.045Z,80.40
2018-03-20T02:55:38.297Z,80.30
2018-03-20T02:58:04.592Z,80.10
2018-03-20T03:00:31.605Z,79.50
2018-03-20T03:02:57.840Z,80.00
2018-03-20T03:05:24.206Z,80.00
2018-03-20T03:07:50.961Z,80.10
2018-03-20T03:10:17.235Z,80.20
2018-03-20T03:12:44.141Z,80.20
2018-03-20T03:15:10.403Z,80.20
2018-03-20T03:17:36.656Z,80.30
2018-03-20T03:20:04.053Z,79.70
2018-03-20T03:22:30.836Z,79.80
2018-03-20T03:24:58.408Z,80.00
2018-03-20T03:27:25.391Z,80.20
2018-03-20T03:29:52.081Z,80.20
2018-03-20T03:32:18.836Z,80.20
2018-03-20T03:34:46.245Z,80.20
2018-03-20T03:37:12.493Z,80.20
2018-03-20T03:39:39.365Z,80.00
2018-03-20T03:42:06.222Z,80.10
2018-03-20T03:44:33.213Z,80.50
2018-03-20T03:46:59.453Z,79.80
2018-03-20T03:49:25.728Z,79.80
2018-03-20T03:51:52.653Z,79.80
2018-03-20T03:54:19.293Z,79.40
2018-03-20T03:56:45.545Z,79.20
2018-03-20T03:59:11.799Z,79.20
2018-03-20T04:01:38.076Z,79.50
2018-03-20T04:04:04.885Z,79.90
2018-03-20T04:06:31.913Z,79.90
2018-03-20T04:08:58.168Z,79.90
2018-03-20T04:11:25.039Z,79.80
2018-03-20T04:13:51.836Z,79.40
2018-03-20T04:16:18.840Z,79.40
2018-03-20T04:18:46.680Z,79.60
2018-03-20T04:21:12.930Z,79.60
2018-03-20T04:23:40.466Z,79.40
2018-03-20T04:26:06.726Z,79.30
2018-03-20T04:28:33.712Z,79.90
2018-03-20T04:31:00.640Z,79.60
2018-03-20T04:33:28.104Z,79.90
2018-03-20T04:35:55.096Z,80.30
2018-03-20T04:38:21.895Z,80.30
2018-03-20T04:40:48.887Z,80.10
2018-03-20T04:43:15.126Z,80.10
2018-03-20T04:45:41.725Z,80.50
2018-03-20T04:48:08.712Z,80.70
2018-03-20T04:50:35.671Z,80.70
2018-03-20T04:53:02.476Z,80.80
2018-03-20T04:55:29.464Z,81.20
2018-03-20T04:57:55.720Z,81.10
2018-03-20T05:00:22.306Z,81.40
2018-03-20T05:02:49.748Z,82.00
2018-03-20T05:05:15.997Z,82.00
2018-03-20T05:07:44.173Z,82.20
2018-03-20T05:10:11.658Z,81.90
2018-03-20T05:12:38.277Z,81.80
2018-03-20T05:15:05.261Z,81.20
2018-03-20T05:17:32.191Z,81.20
2018-03-20T05:20:05.344Z,81.50
2018-03-20T05:22:49.721Z,81.50
2018-03-20T05:25:16.745Z,81.20
2018-03-20T05:27:43.040Z,81.20
2018-03-20T05:30:09.762Z,81.40
2018-03-20T05:32:37.279Z,81.60
2018-03-20T05:35:04.112Z,81.60
2018-03-20T05:37:30.939Z,81.50
2018-03-20T05:39:57.973Z,81.60
2018-03-20T05:42:24.997Z,82.70
2018-03-20T05:44:51.280Z,82.00
2018-03-20T05:47:32.465Z,81.90
2018-03-20T05:50:06.333Z,81.60
2018-03-20T05:52:33.642Z,80.70
2018-03-20T05:54:59.916Z,80.70
2018-03-20T05:57:26.164Z,80.50
2018-03-20T05:59:53.631Z,80.20
2018-03-20T06:02:20.658Z,80.00
2018-03-20T06:04:47.281Z,80.00
2018-03-20T06:07:13.553Z,78.90
2018-03-20T06:09:40.542Z,78.60
2018-03-20T06:12:06.854Z,78.60
2018-03-20T06:14:33.795Z,78.30
2018-03-20T06:17:01.263Z,78.20
2018-03-20T06:19:28.257Z,78.10
2018-03-20T06:21:55.076Z,78.10
2018-03-20T06:24:21.326Z,77.80
2018-03-20T06:26:47.574Z,78.10
2018-03-20T06:29:13.832Z,77.20
2018-03-20T06:31:40.805Z,77.50
2018-03-20T06:34:08.474Z,77.00
2018-03-20T06:36:35.481Z,76.80
2018-03-20T06:39:02.381Z,76.80
2018-03-20T06:41:29.361Z,76.00
2018-03-20T06:43:55.609Z,75.90
2018-03-20T06:46:21.874Z,76.00
2018-03-20T06:48:48.126Z,74.90
2018-03-20T06:51:15.703Z,75.20
2018-03-20T06:53:43.277Z,75.00
2018-03-20T06:56:10.311Z,75.00
2018-03-20T06:58:37.685Z,73.20
2018-03-20T07:01:05.107Z,73.60
2018-03-20T07:03:31.374Z,73.60
2018-03-20T07:05:58.367Z,70.90
2018-03-20T07:08:24.651Z,71.10
2018-03-20T07:10:52.383Z,71.30
2018-03-20T07:13:19.079Z,71.30
2018-03-20T07:15:46.077Z,71.90
2018-03-20T07:18:12.735Z,71.80
2018-03-20T07:20:39.016Z,70.70
2018-03-20T07:23:05.633Z,71.40
2018-03-20T07:25:31.890Z,70.10
2018-03-20T07:27:58.143Z,70.80
2018-03-20T07:30:25.277Z,68.90
2018-03-20T07:32:52.916Z,70.60
2018-03-20T07:35:19.690Z,70.50
2018-03-20T07:37:46.685Z,67.50
2018-03-20T07:40:13.255Z,67.50
2018-03-20T07:42:39.512Z,68.90
2018-03-20T07:45:07.168Z,68.20
2018-03-20T07:47:34.162Z,69.40
2018-03-20T07:50:00.426Z,69.40
2018-03-20T07:52:27.362Z,69.90
2018-03-20T07:54:54.152Z,68.20
2018-03-20T07:57:20.769Z,69.20
2018-03-20T07:59:47.708Z,69.30
2018-03-20T08:02:14.501Z,69.10
2018-03-20T08:04:42.050Z,68.10
2018-03-20T08:07:09.474Z,68.30
2018-03-20T08:09:36.151Z,68.30
2018-03-20T08:12:03.893Z,66.30
2018-03-20T08:14:30.142Z,66.30
2018-03-20T08:16:57.324Z,66.70
2018-03-20T08:19:24.357Z,66.20
2018-03-20T08:21:50.598Z,66.10
2018-03-20T08:24:17.974Z,68.00
2018-03-20T08:26:44.974Z,66.40
2018-03-20T08:29:11.888Z,66.30
2018-03-20T08:31:38.503Z,66.70
2018-03-20T08:34:05.866Z,65.70
2018-03-20T08:36:32.855Z,66.20
2018-03-20T08:38:59.712Z,66.10
2018-03-20T08:41:26.105Z,65.90
2018-03-20T08:43:53.103Z,65.70
2018-03-20T08:46:19.418Z,65.70
2018-03-20T08:48:46.269Z,64.70
2018-03-20T08:51:12.522Z,65.40
2018-03-20T08:53:39.288Z,66.10
2018-03-20T08:56:05.535Z,66.40
2018-03-20T08:58:31.772Z,66.40
2018-03-20T09:00:58.634Z,65.60
2018-03-20T09:03:24.898Z,66.90
2018-03-20T09:05:51.533Z,67.10
2018-03-20T09:08:18.565Z,66.60
2018-03-20T09:10:46.336Z,66.40
2018-03-20T09:13:13.712Z,67.90
2018-03-20T09:15:40.789Z,67.50
2018-03-20T09:18:07.414Z,67.60
2018-03-20T09:20:34.402Z,65.80
2018-03-20T09:23:00.673Z,65.80
2018-03-20T09:25:26.938Z,67.60
2018-03-20T09:27:54.543Z,67.10
2018-03-20T09:30:21.272Z,67.10
2018-03-20T09:32:47.803Z,66.80
2018-03-20T09:35:14.433Z,66.70
2018-03-20T09:37:41.426Z,67.70
2018-03-20T09:40:08.029Z,67.70
2018-03-20T09:42:34.285Z,68.00
2018-03-20T09:45:01.101Z,68.20
2018-03-20T09:47:27.392Z,69.40
2018-03-20T09:49:54.486Z,69.20
2018-03-20T09:52:21.818Z,69.00
2018-03-20T09:54:48.070Z,68.90
2018-03-20T09:57:15.519Z,68.30
2018-03-20T09:59:41.777Z,68.30
2018-03-20T10:02:08.760Z,68.00
2018-03-20T10:04:35.773Z,68.00
2018-03-20T10:07:03.250Z,67.20
2018-03-20T10:09:30.272Z,67.20
2018-03-20T10:11:56.530Z,67.10
2018-03-20T10:14:24.300Z,66.00
2018-03-20T10:16:51.946Z,66.70
2018-03-20T10:19:18.920Z,66.80
2018-03-20T10:21:45.920Z,65.90
2018-03-20T10:24:13.438Z,66.60
2018-03-20T10:26:40.426Z,65.70
2018-03-20T10:29:06.687Z,65.70
2018-03-20T10:31:33.711Z,64.00
2018-03-20T10:34:00.426Z,65.00
2018-03-20T10:36:26.663Z,65.10
2018-03-20T10:38:53.400Z,66.10
2018-03-20T10:41:20.946Z,65.80
2018-03-20T10:43:47.966Z,65.90
2018-03-20T10:46:14.225Z,66.50
2018-03-20T10:48:40.896Z,67.00
2018-03-20T10:51:07.893Z,68.00
2018-03-20T10:53:34.791Z,68.00
2018-03-20T10:56:02.255Z,68.00
2018-03-20T10:58:29.310Z,68.40
2018-03-20T11:01:02.395Z,68.30
2018-03-20T11:03:29.428Z,69.30
2018-03-20T11:05:57.639Z,69.40
2018-03-20T11:08:23.890Z,69.40
2018-03-20T11:10:50.590Z,70.20
2018-03-20T11:13:17.578Z,69.80
2018-03-20T11:15:43.830Z,69.50
2018-03-20T11:18:10.487Z,69.50
2018-03-20T11:20:36.758Z,70.10
2018-03-20T11:23:04.400Z,69.90
2018-03-20T11:25:30.670Z,69.90
2018-03-20T11:27:57.649Z,70.60
2018-03-20T11:30:24.195Z,70.60
2018-03-20T11:32:50.799Z,70.30
2018-03-20T11:35:18.229Z,70.30
2018-03-20T11:37:44.486Z,70.30
2018-03-20T11:40:12.560Z,69.70
2018-03-20T11:42:39.535Z,69.80
2018-03-20T11:45:06.884Z,70.10
2018-03-20T11:47:33.858Z,70.60
2018-03-20T11:50:00.103Z,70.50
2018-03-20T11:52:26.691Z,70.00
2018-03-20T11:54:52.980Z,69.40
2018-03-20T11:57:19.932Z,68.80
2018-03-20T11:59:46.522Z,68.70
2018-03-20T12:02:12.807Z,68.20
2018-03-20T12:04:40.437Z,66.40
2018-03-20T12:07:07.751Z,66.50
2018-03-20T12:09:48.941Z,66.40
2018-03-20T12:12:15.223Z,67.20
2018-03-20T12:14:41.954Z,67.20
2018-03-20T12:17:09.422Z,65.70
2018-03-20T12:19:36.984Z,65.60
2018-03-20T12:22:03.990Z,64.60
2018-03-20T12:24:30.242Z,64.70
2018-03-20T12:26:56.914Z,66.80
2018-03-20T12:29:23.938Z,64.90
2018-03-20T12:31:50.684Z,64.90
2018-03-20T12:34:18.185Z,63.20
2018-03-20T12:36:45.174Z,63.60
2018-03-20T12:39:11.986Z,63.20
2018-03-20T12:41:39.847Z,62.50
2018-03-20T12:44:07.322Z,64.30
2018-03-20T12:46:33.608Z,64.30
2018-03-20T12:48:59.887Z,63.90
2018-03-20T12:51:27.231Z,63.90
2018-03-20T12:53:53.879Z,63.90
2018-03-20T12:56:21.454Z,62.60
2018-03-20T12:58:48.458Z,61.60
2018-03-20T13:01:14.749Z,61.60
2018-03-20T13:03:41.479Z,62.20
2018-03-20T13:06:09.063Z,61.80
2018-03-20T13:08:35.311Z,61.80
2018-03-20T13:11:01.616Z,63.40
2018-03-20T13:13:28.614Z,63.00
2018-03-20T13:15:54.890Z,62.90
2018-03-20T13:18:21.852Z,62.40
2018-03-20T13:20:49.519Z,60.60
2018-03-20T13:23:16.530Z,61.30
2018-03-20T13:25:42.782Z,61.20
2018-03-20T13:28:09.068Z,61.40
2018-03-20T13:30:35.322Z,62.50
2018-03-20T13:33:02.330Z,61.60
2018-03-20T13:35:29.764Z,62.70
2018-03-20T13:37:56.022Z,62.50
2018-03-20T13:40:23.586Z,62.80
2018-03-20T13:42:51.032Z,62.90
2018-03-20T13:45:17.294Z,62.90
2018-03-20T13:47:44.335Z,61.50
2018-03-20T13:50:11.344Z,62.30
2018-03-20T13:52:38.038Z,62.30
2018-03-20T13:55:05.363Z,62.30
2018-03-20T13:57:31.623Z,62.40
2018-03-20T13:59:59.110Z,61.20
2018-03-20T14:02:25.359Z,60.90
2018-03-20T14:04:52.053Z,59.90
2018-03-20T14:07:18.290Z,60.60
2018-03-20T14:09:44.560Z,58.50
2018-03-20T14:12:11.142Z,61.20
2018-03-20T14:14:38.069Z,59.60
2018-03-20T14:17:05.894Z,60.50
2018-03-20T14:19:32.907Z,58.60
2018-03-20T14:21:59.165Z,58.50
2018-03-20T14:24:26.156Z,59.60
2018-03-20T14:26:52.430Z,59.60
2018-03-20T14:29:18.790Z,56.00
2018-03-20T14:31:45.476Z,58.20
2018-03-20T14:34:12.207Z,57.50
2018-03-20T14:36:39.188Z,56.00
2018-03-20T14:39:06.072Z,55.80
2018-03-20T14:41:32.318Z,56.40
2018-03-20T14:43:58.609Z,55.80
2018-03-20T14:46:25.192Z,54.60
2018-03-20T14:48:52.199Z,56.00
2018-03-20T14:51:19.203Z,56.00
2018-03-20T14:53:46.161Z,56.40
2018-03-20T14:56:13.154Z,62.00
2018-03-20T14:58:39.406Z,62.00
2018-03-20T15:01:05.738Z,62.30
2018-03-20T15:03:32.540Z,62.30
2018-03-20T15:05:59.818Z,63.90
2018-03-20T15:08:26.066Z,63.90
2018-03-20T15:10:52.338Z,63.80
2018-03-20T15:13:20.046Z,64.50
2018-03-20T15:15:46.286Z,64.50
2018-03-20T15:18:13.002Z,64.60
2018-03-20T15:20:39.247Z,65.40
2018-03-20T15:23:06.289Z,65.00
2018-03-20T15:25:32.833Z,65.00
2018-03-20T15:28:00.186Z,65.90
2018-03-20T15:30:27.194Z,66.30
2018-03-20T15:32:54.101Z,65.60
2018-03-20T15:35:21.428Z,65.40
2018-03-20T15:37:47.672Z,65.30
2018-03-20T15:40:15.839Z,65.20
2018-03-20T15:42:42.503Z,65.20
2018-03-20T15:45:08.855Z,65.30
2018-03-20T15:47:36.102Z,67.00
2018-03-20T15:50:03.879Z,68.40
2018-03-20T15:52:31.376Z,68.00
2018-03-20T15:54:57.815Z,68.00
2018-03-20T15:57:24.119Z,67.30
2018-03-20T15:59:51.490Z,67.90
2018-03-20T16:02:17.734Z,67.90
2018-03-20T16:04:44.448Z,68.00
2018-03-20T16:07:10.792Z,67.70
2018-03-20T16:09:37.767Z,67.50
2018-03-20T16:12:04.051Z,67.50
2018-03-20T16:14:30.319Z,67.10
2018-03-20T16:16:58.895Z,67.00
2018-03-20T16:19:25.899Z,68.10
2018-03-20T16:21:54.583Z,67.10
2018-03-20T16:24:21.318Z,67.10
2018-03-20T16:26:47.975Z,67.40
2018-03-20T16:29:14.248Z,68.00
2018-03-20T16:31:42.278Z,67.20
2018-03-20T16:34:09.006Z,67.20
2018-03-20T16:36:35.265Z,68.20
2018-03-20T16:39:01.511Z,68.40
2018-03-20T16:41:28.503Z,68.80
2018-03-20T16:43:55.851Z,68.80
2018-03-20T16:46:22.138Z,68.90
2018-03-20T16:48:48.816Z,68.60
2018-03-20T16:51:15.078Z,68.80
2018-03-20T16:53:42.711Z,68.40
2018-03-20T16:56:09.401Z,68.40
2018-03-20T16:58:36.386Z,68.70
2018-03-20T17:01:02.647Z,68.70
2018-03-20T17:03:29.412Z,69.40
2018-03-20T17:05:56.984Z,69.30
2018-03-20T17:08:23.970Z,70.30
2018-03-20T17:10:50.322Z,70.30
2018-03-20T17:13:16.599Z,71.20
2018-03-20T17:15:43.583Z,70.40
2018-03-20T17:18:10.294Z,70.40
2018-03-20T17:20:37.056Z,70.60
2018-03-20T17:23:04.062Z,71.60
2018-03-20T17:25:30.314Z,71.60
2018-03-20T17:27:57.105Z,71.60
2018-03-20T17:30:24.050Z,71.40
2018-03-20T17:32:51.099Z,71.80
2018-03-20T17:35:18.858Z,73.00
2018-03-20T17:37:45.850Z,72.50
2018-03-20T17:40:12.575Z,72.50
2018-03-20T17:42:38.830Z,73.00
2018-03-20T17:45:05.598Z,73.90
2018-03-20T17:47:31.827Z,73.90
2018-03-20T17:49:58.084Z,73.90
2018-03-20T17:52:24.954Z,73.40
2018-03-20T17:54:52.012Z,73.00
2018-03-20T17:57:19.015Z,73.50
2018-03-20T17:59:46.052Z,73.50
2018-03-20T18:02:12.365Z,73.20
2018-03-20T18:04:39.197Z,73.70
2018-03-20T18:07:06.185Z,74.80
2018-03-20T18:09:32.440Z,74.80
2018-03-20T18:11:58.703Z,76.50
2018-03-20T18:14:25.568Z,75.80
2018-03-20T18:16:53.125Z,77.20
2018-03-20T18:19:20.547Z,76.60
2018-03-20T18:21:46.810Z,76.60
2018-03-20T18:24:13.847Z,77.10
2018-03-20T18:26:41.655Z,75.50
2018-03-20T18:29:09.114Z,77.20
2018-03-20T18:31:36.671Z,77.90
2018-03-20T18:34:19.178Z,76.60
2018-03-20T18:36:46.202Z,78.30
2018-03-20T18:39:12.579Z,78.30
2018-03-20T18:41:39.730Z,77.50
2018-03-20T18:44:07.290Z,77.80
2018-03-20T18:46:34.288Z,78.50
2018-03-20T18:49:00.567Z,78.60
2018-03-20T18:51:28.064Z,78.40
2018-03-20T18:53:54.767Z,78.40
2018-03-20T18:56:21.027Z,78.30
2018-03-20T18:58:47.951Z,77.70
2018-03-20T19:01:15.544Z,78.50
2018-03-20T19:03:41.800Z,78.30
2018-03-20T19:06:08.506Z,76.90
2018-03-20T19:08:35.879Z,79.20
2018-03-20T19:11:03.264Z,79.80
2018-03-20T19:13:29.978Z,79.80
2018-03-20T19:15:56.976Z,79.40
2018-03-20T19:18:23.958Z,79.40
2018-03-20T19:20:50.223Z,79.40
2018-03-20T19:23:17.274Z,78.40
2018-03-20T19:25:44.854Z,78.80
2018-03-20T19:28:11.778Z,78.80
2018-03-20T19:30:39.458Z,79.60
2018-03-20T19:33:06.142Z,79.60
2018-03-20T19:35:32.786Z,78.80
2018-03-20T19:37:59.042Z,78.70
2018-03-20T19:40:25.955Z,79.20
2018-03-20T19:42:52.271Z,79.10
2018-03-20T19:45:18.737Z,79.10
2018-03-20T19:47:45.461Z,79.30
2018-03-20T19:50:12.304Z,79.30
2018-03-20T19:52:40.318Z,78.90
2018-03-20T19:55:07.551Z,79.50
2018-03-20T19:57:34.172Z,80.20
2018-03-20T20:00:01.028Z,80.20
2018-03-20T20:02:28.095Z,79.50
2018-03-20T20:04:55.258Z,78.20
2018-03-20T20:07:21.742Z,80.80
2018-03-20T20:09:50.621Z,81.60
2018-03-20T20:12:16.935Z,81.60
2018-03-20T20:14:43.296Z,79.80
2018-03-20T20:17:10.130Z,78.60
2018-03-20T20:19:36.644Z,80.80
2018-03-20T20:22:03.157Z,80.40
2018-03-20T20:24:31.047Z,82.40
2018-03-20T20:26:57.421Z,82.40
2018-03-20T20:29:24.452Z,83.50
2018-03-20T20:31:51.495Z,81.60
2018-03-20T20:34:18.760Z,81.00
2018-03-20T20:36:45.216Z,80.80
2018-03-20T20:39:12.457Z,80.60
2018-03-20T20:41:39.888Z,81.10
2018-03-20T20:44:07.789Z,81.60
2018-03-20T20:46:34.799Z,81.60
2018-03-20T20:49:01.137Z,78.40
2018-03-20T20:51:27.596Z,79.30
2018-03-20T20:53:54.327Z,82.10
2018-03-20T20:56:21.341Z,82.30
2018-03-20T20:58:48.231Z,82.30
2018-03-20T21:01:15.225Z,81.10
2018-03-20T21:03:41.482Z,81.10
2018-03-20T21:06:08.170Z,81.90
2018-03-20T21:08:35.154Z,81.10
2018-03-20T21:11:02.066Z,81.00
2018-03-20T21:13:29.119Z,82.20
2018-03-20T21:15:56.109Z,82.60
2018-03-20T21:18:22.818Z,82.50
2018-03-20T21:20:50.161Z,79.80
2018-03-20T21:23:16.416Z,79.80
2018-03-20T21:25:43.010Z,81.30
2018-03-20T21:28:09.308Z,81.10
2018-03-20T21:30:36.278Z,81.40
2018-03-20T21:33:03.346Z,81.40
2018-03-20T21:35:30.130Z,82.00
2018-03-20T21:37:57.119Z,80.80
2018-03-20T21:40:24.031Z,80.70
2018-03-20T21:42:51.026Z,80.90
2018-03-20T21:45:17.295Z,80.90
2018-03-20T21:47:43.858Z,82.20
2018-03-20T21:50:11.738Z,82.10
2018-03-20T21:52:39.202Z,83.10
2018-03-20T21:55:06.230Z,82.60
2018-03-20T21:57:32.587Z,82.60
2018-03-20T21:59:59.606Z,81.40
2018-03-20T22:02:27.919Z,82.60
2018-03-20T22:04:55.381Z,83.00
2018-03-20T22:07:22.377Z,81.60
2018-03-20T22:09:48.635Z,81.60
2018-03-20T22:12:15.207Z,81.40
2018-03-20T22:14:42.202Z,82.10
2018-03-20T22:17:09.111Z,82.00
2018-03-20T22:19:36.546Z,81.00
2018-03-20T22:22:02.829Z,81.10
2018-03-20T22:24:29.086Z,81.80
2018-03-20T22:26:55.678Z,81.90
2018-03-20T22:29:23.143Z,80.70
2018-03-20T22:31:50.615Z,80.40
2018-03-20T22:34:18.174Z,82.00
2018-03-20T22:36:45.654Z,81.30
2018-03-20T22:39:12.633Z,81.10
2018-03-20T22:41:39.307Z,81.10
2018-03-20T22:44:06.033Z,81.80
2018-03-20T22:46:33.223Z,82.40
2018-03-20T22:49:00.799Z,82.30
2018-03-20T22:51:27.785Z,82.30
2018-03-20T22:53:54.666Z,81.50
2018-03-20T22:56:20.920Z,81.30
2018-03-20T22:58:48.397Z,80.90
2018-03-20T23:01:15.399Z,81.40
2018-03-20T23:03:41.672Z,81.40
2018-03-20T23:06:09.543Z,81.90
2018-03-20T23:08:36.546Z,82.40
2018-03-20T23:11:03.343Z,82.40
2018-03-20T23:13:30.335Z,81.50
2018-03-20T23:15:57.377Z,81.50
2018-03-20T23:18:24.095Z,83.30
2018-03-20T23:20:51.103Z,82.20
2018-03-20T23:23:17.353Z,82.20
2018-03-20T23:25:44.192Z,82.00
2018-03-20T23:28:10.438Z,81.50
2018-03-20T23:30:38.762Z,80.60
2018-03-20T23:33:05.391Z,81.30
2018-03-20T23:35:32.783Z,81.20
2018-03-20T23:37:59.030Z,81.10
2018-03-20T23:40:25.826Z,81.00
2018-03-20T23:42:52.922Z,81.50
2018-03-20T23:45:19.698Z,80.50
2018-03-20T23:47:46.482Z,81.00
2018-03-20T23:50:13.485Z,82.20
2018-03-20T23:52:40.175Z,81.40
2018-03-20T23:55:07.168Z,81.80
2018-03-20T23:57:33.412Z,81.80
